sensor_id;sensor_type;location;lat;lon;timestamp;temperature;humidity
18654;DHT22;9456;47.824;16.228;2022-12-29T00:01:17;-2.10;91.30
18654;DHT22;9456;47.824;16.228;2022-12-29T00:03:47;-2.20;91.50
18654;DHT22;9456;47.824;16.228;2022-12-29T00:06:16;-2.10;91.70
18654;DHT22;9456;47.824;16.228;2022-12-29T00:08:45;-2.20;91.70
18654;DHT22;9456;47.824;16.228;2022-12-29T00:11:14;-2.20;92.30
18654;DHT22;9456;47.824;16.228;2022-12-29T00:13:45;-2.20;91.90
18654;DHT22;9456;47.824;16.228;2022-12-29T00:16:30;-2.30;91.80
18654;DHT22;9456;47.824;16.228;2022-12-29T00:18:58;-2.30;91.80
18654;DHT22;9456;47.824;16.228;2022-12-29T00:21:27;-2.30;91.90
18654;DHT22;9456;47.824;16.228;2022-12-29T00:24:15;-2.30;91.90
18654;DHT22;9456;47.824;16.228;2022-12-29T00:27:08;-2.40;91.90
18654;DHT22;9456;47.824;16.228;2022-12-29T00:29:52;-2.40;91.90
18654;DHT22;9456;47.824;16.228;2022-12-29T00:32:46;-2.50;91.80
18654;DHT22;9456;47.824;16.228;2022-12-29T00:35:42;-2.60;91.70
18654;DHT22;9456;47.824;16.228;2022-12-29T00:38:03;-2.60;92.10
18654;DHT22;9456;47.824;16.228;2022-12-29T00:40:49;-2.60;92.40
18654;DHT22;9456;47.824;16.228;2022-12-29T00:43:36;-2.50;92.60
18654;DHT22;9456;47.824;16.228;2022-12-29T00:46:23;-2.50;92.80
18654;DHT22;9456;47.824;16.228;2022-12-29T00:48:52;-2.40;93.10
18654;DHT22;9456;47.824;16.228;2022-12-29T00:51:39;-2.30;93.30
18654;DHT22;9456;47.824;16.228;2022-12-29T00:54:08;-2.30;93.10
18654;DHT22;9456;47.824;16.228;2022-12-29T00:56:37;-2.30;93.00
18654;DHT22;9456;47.824;16.228;2022-12-29T00:59:06;-2.40;92.90
18654;DHT22;9456;47.824;16.228;2022-12-29T01:01:35;-2.40;92.90
18654;DHT22;9456;47.824;16.228;2022-12-29T01:04:04;-2.40;92.90
18654;DHT22;9456;47.824;16.228;2022-12-29T01:06:33;-2.40;93.00
18654;DHT22;9456;47.824;16.228;2022-12-29T01:09:02;-2.40;92.90
18654;DHT22;9456;47.824;16.228;2022-12-29T01:11:48;-2.40;92.80
18654;DHT22;9456;47.824;16.228;2022-12-29T01:14:18;-2.40;93.00
18654;DHT22;9456;47.824;16.228;2022-12-29T01:16:46;-2.30;93.30
18654;DHT22;9456;47.824;16.228;2022-12-29T01:19:16;-2.20;93.60
18654;DHT22;9456;47.824;16.228;2022-12-29T01:21:44;-2.10;93.70
18654;DHT22;9456;47.824;16.228;2022-12-29T01:24:14;-2.00;94.00
18654;DHT22;9456;47.824;16.228;2022-12-29T01:26:42;-2.00;94.00
18654;DHT22;9456;47.824;16.228;2022-12-29T01:29:11;-1.90;94.10
18654;DHT22;9456;47.824;16.228;2022-12-29T01:31:40;-1.90;93.80
18654;DHT22;9456;47.824;16.228;2022-12-29T01:34:09;-2.10;93.60
18654;DHT22;9456;47.824;16.228;2022-12-29T01:36:38;-2.20;93.50
18654;DHT22;9456;47.824;16.228;2022-12-29T01:39:07;-2.30;93.50
18654;DHT22;9456;47.824;16.228;2022-12-29T01:41:36;-2.30;93.70
18654;DHT22;9456;47.824;16.228;2022-12-29T01:44:46;-2.30;94.00
18654;DHT22;9456;47.824;16.228;2022-12-29T01:52:38;-2.30;94.50
18654;DHT22;9456;47.824;16.228;2022-12-29T01:55:07;-2.20;94.30
18654;DHT22;9456;47.824;16.228;2022-12-29T01:57:38;-2.30;94.30
18654;DHT22;9456;47.824;16.228;2022-12-29T02:00:08;-2.30;94.30
18654;DHT22;9456;47.824;16.228;2022-12-29T02:02:37;-2.30;94.40
18654;DHT22;9456;47.824;16.228;2022-12-29T02:05:09;-2.30;94.50
18654;DHT22;9456;47.824;16.228;2022-12-29T02:07:37;-2.30;94.50
18654;DHT22;9456;47.824;16.228;2022-12-29T02:10:07;-2.30;94.50
18654;DHT22;9456;47.824;16.228;2022-12-29T02:12:36;-2.30;94.50
18654;DHT22;9456;47.824;16.228;2022-12-29T02:15:07;-2.30;94.50
18654;DHT22;9456;47.824;16.228;2022-12-29T02:17:44;-2.30;94.60
18654;DHT22;9456;47.824;16.228;2022-12-29T02:23:36;-2.30;94.70
18654;DHT22;9456;47.824;16.228;2022-12-29T02:29:38;-2.40;94.50
18654;DHT22;9456;47.824;16.228;2022-12-29T02:32:07;-2.40;94.50
18654;DHT22;9456;47.824;16.228;2022-12-29T02:34:40;-2.50;94.30
18654;DHT22;9456;47.824;16.228;2022-12-29T02:37:09;-2.50;94.30
18654;DHT22;9456;47.824;16.228;2022-12-29T02:39:38;-2.50;94.50
18654;DHT22;9456;47.824;16.228;2022-12-29T02:42:07;-2.60;94.40
18654;DHT22;9456;47.824;16.228;2022-12-29T02:44:39;-2.60;94.20
18654;DHT22;9456;47.824;16.228;2022-12-29T02:47:08;-2.60;94.20
18654;DHT22;9456;47.824;16.228;2022-12-29T02:49:45;-2.60;94.20
18654;DHT22;9456;47.824;16.228;2022-12-29T02:52:15;-2.70;94.00
18654;DHT22;9456;47.824;16.228;2022-12-29T02:54:43;-2.70;94.20
18654;DHT22;9456;47.824;16.228;2022-12-29T02:57:26;-2.80;94.10
18654;DHT22;9456;47.824;16.228;2022-12-29T02:59:44;-2.80;94.10
18654;DHT22;9456;47.824;16.228;2022-12-29T03:02:29;-2.80;94.10
18654;DHT22;9456;47.824;16.228;2022-12-29T03:08:03;-2.80;94.20
18654;DHT22;9456;47.824;16.228;2022-12-29T03:10:37;-2.80;94.20
18654;DHT22;9456;47.824;16.228;2022-12-29T03:13:10;-2.80;94.30
18654;DHT22;9456;47.824;16.228;2022-12-29T03:15:58;-2.80;94.10
18654;DHT22;9456;47.824;16.228;2022-12-29T03:18:45;-2.90;94.10
18654;DHT22;9456;47.824;16.228;2022-12-29T03:21:15;-3.00;93.90
18654;DHT22;9456;47.824;16.228;2022-12-29T03:23:44;-3.00;93.80
18654;DHT22;9456;47.824;16.228;2022-12-29T03:26:12;-3.10;93.70
18654;DHT22;9456;47.824;16.228;2022-12-29T03:28:43;-3.20;93.70
18654;DHT22;9456;47.824;16.228;2022-12-29T03:31:11;-3.30;93.60
18654;DHT22;9456;47.824;16.228;2022-12-29T03:33:39;-3.30;93.60
18654;DHT22;9456;47.824;16.228;2022-12-29T03:36:11;-3.30;93.60
18654;DHT22;9456;47.824;16.228;2022-12-29T03:38:39;-3.30;93.60
18654;DHT22;9456;47.824;16.228;2022-12-29T03:41:09;-3.30;93.60
18654;DHT22;9456;47.824;16.228;2022-12-29T03:43:37;-3.30;93.60
18654;DHT22;9456;47.824;16.228;2022-12-29T03:46:06;-3.30;93.60
18654;DHT22;9456;47.824;16.228;2022-12-29T03:48:35;-3.30;93.60
18654;DHT22;9456;47.824;16.228;2022-12-29T03:53:53;-3.30;93.60
18654;DHT22;9456;47.824;16.228;2022-12-29T03:56:22;-3.30;93.70
18654;DHT22;9456;47.824;16.228;2022-12-29T03:58:51;-3.30;93.70
18654;DHT22;9456;47.824;16.228;2022-12-29T04:01:20;-3.40;93.70
18654;DHT22;9456;47.824;16.228;2022-12-29T04:03:49;-3.50;93.70
18654;DHT22;9456;47.824;16.228;2022-12-29T04:06:18;-3.50;93.70
18654;DHT22;9456;47.824;16.228;2022-12-29T04:08:47;-3.50;93.80
18654;DHT22;9456;47.824;16.228;2022-12-29T04:11:16;-3.60;93.70
18654;DHT22;9456;47.824;16.228;2022-12-29T04:13:45;-3.60;93.70
18654;DHT22;9456;47.824;16.228;2022-12-29T04:16:14;-3.60;93.80
18654;DHT22;9456;47.824;16.228;2022-12-29T04:18:43;-3.50;93.90
18654;DHT22;9456;47.824;16.228;2022-12-29T04:21:12;-3.50;93.80
18654;DHT22;9456;47.824;16.228;2022-12-29T04:23:41;-3.50;94.00
18654;DHT22;9456;47.824;16.228;2022-12-29T04:26:10;-3.50;93.90
18654;DHT22;9456;47.824;16.228;2022-12-29T04:28:39;-3.60;93.70
18654;DHT22;9456;47.824;16.228;2022-12-29T04:31:08;-3.60;93.80
18654;DHT22;9456;47.824;16.228;2022-12-29T04:33:36;-3.70;93.80
18654;DHT22;9456;47.824;16.228;2022-12-29T04:36:06;-3.70;93.80
18654;DHT22;9456;47.824;16.228;2022-12-29T04:38:35;-3.70;93.80
18654;DHT22;9456;47.824;16.228;2022-12-29T04:41:04;-3.70;93.80
18654;DHT22;9456;47.824;16.228;2022-12-29T04:43:33;-3.60;93.80
18654;DHT22;9456;47.824;16.228;2022-12-29T04:46:02;-3.60;93.80
18654;DHT22;9456;47.824;16.228;2022-12-29T04:48:31;-3.70;93.70
18654;DHT22;9456;47.824;16.228;2022-12-29T04:51:00;-3.70;93.70
18654;DHT22;9456;47.824;16.228;2022-12-29T04:56:09;-3.70;93.80
18654;DHT22;9456;47.824;16.228;2022-12-29T04:58:38;-3.80;93.70
18654;DHT22;9456;47.824;16.228;2022-12-29T05:01:07;-3.70;93.80
18654;DHT22;9456;47.824;16.228;2022-12-29T05:03:36;-3.70;93.80
18654;DHT22;9456;47.824;16.228;2022-12-29T05:06:06;-3.70;93.80
18654;DHT22;9456;47.824;16.228;2022-12-29T05:08:35;-3.70;93.80
18654;DHT22;9456;47.824;16.228;2022-12-29T05:11:04;-3.70;94.00
18654;DHT22;9456;47.824;16.228;2022-12-29T05:13:33;-3.70;93.80
18654;DHT22;9456;47.824;16.228;2022-12-29T05:16:02;-3.70;93.80
18654;DHT22;9456;47.824;16.228;2022-12-29T05:18:31;-3.80;93.80
18654;DHT22;9456;47.824;16.228;2022-12-29T05:20:59;-3.90;93.60
18654;DHT22;9456;47.824;16.228;2022-12-29T05:23:28;-3.90;93.60
18654;DHT22;9456;47.824;16.228;2022-12-29T05:25:57;-3.90;93.90
18654;DHT22;9456;47.824;16.228;2022-12-29T05:28:26;-4.00;93.60
18654;DHT22;9456;47.824;16.228;2022-12-29T05:30:56;-4.00;93.60
18654;DHT22;9456;47.824;16.228;2022-12-29T05:33:25;-4.00;93.70
18654;DHT22;9456;47.824;16.228;2022-12-29T05:35:54;-4.00;93.80
18654;DHT22;9456;47.824;16.228;2022-12-29T05:38:23;-4.00;93.80
18654;DHT22;9456;47.824;16.228;2022-12-29T05:40:52;-3.90;93.80
18654;DHT22;9456;47.824;16.228;2022-12-29T05:43:21;-4.00;93.70
18654;DHT22;9456;47.824;16.228;2022-12-29T05:45:50;-4.00;93.80
18654;DHT22;9456;47.824;16.228;2022-12-29T05:48:19;-4.00;93.80
18654;DHT22;9456;47.824;16.228;2022-12-29T05:50:49;-4.00;93.80
18654;DHT22;9456;47.824;16.228;2022-12-29T05:53:18;-3.90;93.90
18654;DHT22;9456;47.824;16.228;2022-12-29T05:55:54;-3.90;93.90
18654;DHT22;9456;47.824;16.228;2022-12-29T05:58:23;-3.90;93.80
18654;DHT22;9456;47.824;16.228;2022-12-29T06:00:52;-3.90;93.70
18654;DHT22;9456;47.824;16.228;2022-12-29T06:03:21;-3.90;93.80
18654;DHT22;9456;47.824;16.228;2022-12-29T06:05:50;-3.90;93.70
18654;DHT22;9456;47.824;16.228;2022-12-29T06:08:19;-4.00;93.60
18654;DHT22;9456;47.824;16.228;2022-12-29T06:10:49;-3.90;93.70
18654;DHT22;9456;47.824;16.228;2022-12-29T06:13:17;-3.90;93.50
18654;DHT22;9456;47.824;16.228;2022-12-29T06:15:47;-4.00;93.40
18654;DHT22;9456;47.824;16.228;2022-12-29T06:18:15;-4.00;93.40
18654;DHT22;9456;47.824;16.228;2022-12-29T06:20:44;-4.10;93.20
18654;DHT22;9456;47.824;16.228;2022-12-29T06:23:13;-4.10;93.10
18654;DHT22;9456;47.824;16.228;2022-12-29T06:25:42;-4.20;93.10
18654;DHT22;9456;47.824;16.228;2022-12-29T06:28:11;-4.20;93.10
18654;DHT22;9456;47.824;16.228;2022-12-29T06:30:40;-4.20;93.10
18654;DHT22;9456;47.824;16.228;2022-12-29T06:33:09;-4.30;93.20
18654;DHT22;9456;47.824;16.228;2022-12-29T06:35:38;-4.20;93.30
18654;DHT22;9456;47.824;16.228;2022-12-29T06:38:07;-4.20;93.30
18654;DHT22;9456;47.824;16.228;2022-12-29T06:40:36;-4.10;93.40
18654;DHT22;9456;47.824;16.228;2022-12-29T06:43:05;-4.10;93.30
18654;DHT22;9456;47.824;16.228;2022-12-29T06:45:34;-4.10;93.20
18654;DHT22;9456;47.824;16.228;2022-12-29T06:48:03;-4.00;93.30
18654;DHT22;9456;47.824;16.228;2022-12-29T06:50:32;-3.90;93.50
18654;DHT22;9456;47.824;16.228;2022-12-29T06:53:01;-3.70;93.80
18654;DHT22;9456;47.824;16.228;2022-12-29T06:55:30;-3.50;93.90
18654;DHT22;9456;47.824;16.228;2022-12-29T06:58:01;-3.30;94.00
18654;DHT22;9456;47.824;16.228;2022-12-29T07:00:30;-3.20;94.30
18654;DHT22;9456;47.824;16.228;2022-12-29T07:02:59;-3.00;94.00
18654;DHT22;9456;47.824;16.228;2022-12-29T07:05:28;-2.90;94.00
18654;DHT22;9456;47.824;16.228;2022-12-29T07:07:57;-2.80;94.00
18654;DHT22;9456;47.824;16.228;2022-12-29T07:10:26;-2.70;94.10
18654;DHT22;9456;47.824;16.228;2022-12-29T07:12:55;-2.60;94.30
18654;DHT22;9456;47.824;16.228;2022-12-29T07:15:24;-2.50;94.60
18654;DHT22;9456;47.824;16.228;2022-12-29T07:17:53;-2.30;94.80
18654;DHT22;9456;47.824;16.228;2022-12-29T07:20:22;-2.20;95.00
18654;DHT22;9456;47.824;16.228;2022-12-29T07:22:51;-2.10;95.20
18654;DHT22;9456;47.824;16.228;2022-12-29T07:25:24;-1.90;95.40
18654;DHT22;9456;47.824;16.228;2022-12-29T07:27:53;-1.80;95.70
18654;DHT22;9456;47.824;16.228;2022-12-29T07:30:22;-1.60;96.20
18654;DHT22;9456;47.824;16.228;2022-12-29T07:32:50;-1.50;96.30
18654;DHT22;9456;47.824;16.228;2022-12-29T07:35:19;-1.40;96.40
18654;DHT22;9456;47.824;16.228;2022-12-29T07:37:48;-1.30;96.40
18654;DHT22;9456;47.824;16.228;2022-12-29T07:40:18;-1.20;96.50
18654;DHT22;9456;47.824;16.228;2022-12-29T07:42:47;-1.10;96.60
18654;DHT22;9456;47.824;16.228;2022-12-29T07:45:16;-1.10;96.50
18654;DHT22;9456;47.824;16.228;2022-12-29T07:47:45;-1.00;96.60
18654;DHT22;9456;47.824;16.228;2022-12-29T07:50:15;-1.00;96.60
18654;DHT22;9456;47.824;16.228;2022-12-29T07:52:44;-0.90;96.70
18654;DHT22;9456;47.824;16.228;2022-12-29T07:55:13;-0.90;96.70
18654;DHT22;9456;47.824;16.228;2022-12-29T07:57:42;-0.90;96.70
18654;DHT22;9456;47.824;16.228;2022-12-29T08:00:13;-0.90;96.80
18654;DHT22;9456;47.824;16.228;2022-12-29T08:02:42;-0.80;96.90
18654;DHT22;9456;47.824;16.228;2022-12-29T08:05:11;-0.70;97.00
18654;DHT22;9456;47.824;16.228;2022-12-29T08:07:41;-0.60;97.00
18654;DHT22;9456;47.824;16.228;2022-12-29T08:10:09;-0.50;97.00
18654;DHT22;9456;47.824;16.228;2022-12-29T08:12:39;-0.50;96.80
18654;DHT22;9456;47.824;16.228;2022-12-29T08:15:10;-0.50;96.80
18654;DHT22;9456;47.824;16.228;2022-12-29T08:17:38;-0.50;96.60
18654;DHT22;9456;47.824;16.228;2022-12-29T08:20:09;-0.60;96.20
18654;DHT22;9456;47.824;16.228;2022-12-29T08:22:39;-0.50;96.60
18654;DHT22;9456;47.824;16.228;2022-12-29T08:25:08;-0.40;96.70
18654;DHT22;9456;47.824;16.228;2022-12-29T08:27:37;-0.40;96.60
18654;DHT22;9456;47.824;16.228;2022-12-29T08:30:08;-0.30;96.50
18654;DHT22;9456;47.824;16.228;2022-12-29T08:32:37;-0.20;96.50
18654;DHT22;9456;47.824;16.228;2022-12-29T08:35:08;0.00;96.20
18654;DHT22;9456;47.824;16.228;2022-12-29T08:37:40;0.10;96.00
18654;DHT22;9456;47.824;16.228;2022-12-29T08:40:10;0.20;95.60
18654;DHT22;9456;47.824;16.228;2022-12-29T08:42:39;0.20;95.00
18654;DHT22;9456;47.824;16.228;2022-12-29T08:45:09;0.30;94.80
18654;DHT22;9456;47.824;16.228;2022-12-29T08:47:38;0.30;94.90
18654;DHT22;9456;47.824;16.228;2022-12-29T08:50:08;0.20;94.30
18654;DHT22;9456;47.824;16.228;2022-12-29T08:52:37;0.20;94.30
18654;DHT22;9456;47.824;16.228;2022-12-29T08:55:07;0.30;94.40
18654;DHT22;9456;47.824;16.228;2022-12-29T08:57:36;0.30;93.80
18654;DHT22;9456;47.824;16.228;2022-12-29T09:00:08;0.30;93.80
18654;DHT22;9456;47.824;16.228;2022-12-29T09:02:38;0.30;93.70
18654;DHT22;9456;47.824;16.228;2022-12-29T09:05:08;0.20;93.30
18654;DHT22;9456;47.824;16.228;2022-12-29T09:07:37;0.10;93.30
18654;DHT22;9456;47.824;16.228;2022-12-29T09:10:08;0.10;93.50
18654;DHT22;9456;47.824;16.228;2022-12-29T09:12:37;0.10;93.60
18654;DHT22;9456;47.824;16.228;2022-12-29T09:15:08;0.20;93.70
18654;DHT22;9456;47.824;16.228;2022-12-29T09:17:37;0.30;93.70
18654;DHT22;9456;47.824;16.228;2022-12-29T09:20:12;0.40;93.60
18654;DHT22;9456;47.824;16.228;2022-12-29T09:22:41;0.40;93.20
18654;DHT22;9456;47.824;16.228;2022-12-29T09:25:11;0.40;93.00
18654;DHT22;9456;47.824;16.228;2022-12-29T09:27:39;0.50;93.20
18654;DHT22;9456;47.824;16.228;2022-12-29T09:30:11;0.50;92.60
18654;DHT22;9456;47.824;16.228;2022-12-29T09:32:39;0.60;92.60
18654;DHT22;9456;47.824;16.228;2022-12-29T09:35:08;0.70;92.80
18654;DHT22;9456;47.824;16.228;2022-12-29T09:37:37;0.80;92.40
18654;DHT22;9456;47.824;16.228;2022-12-29T09:40:09;0.90;92.10
18654;DHT22;9456;47.824;16.228;2022-12-29T09:42:39;1.10;92.00
18654;DHT22;9456;47.824;16.228;2022-12-29T09:45:12;1.20;91.20
18654;DHT22;9456;47.824;16.228;2022-12-29T09:47:40;1.30;91.20
18654;DHT22;9456;47.824;16.228;2022-12-29T09:50:13;1.30;91.30
18654;DHT22;9456;47.824;16.228;2022-12-29T09:52:41;1.40;91.30
18654;DHT22;9456;47.824;16.228;2022-12-29T09:55:12;1.50;91.30
18654;DHT22;9456;47.824;16.228;2022-12-29T09:57:42;1.60;91.00
18654;DHT22;9456;47.824;16.228;2022-12-29T10:00:13;1.50;90.10
18654;DHT22;9456;47.824;16.228;2022-12-29T10:02:42;1.40;90.70
18654;DHT22;9456;47.824;16.228;2022-12-29T10:05:29;1.60;91.10
18654;DHT22;9456;47.824;16.228;2022-12-29T10:08:03;1.70;90.00
18654;DHT22;9456;47.824;16.228;2022-12-29T10:10:34;1.90;90.10
18654;DHT22;9456;47.824;16.228;2022-12-29T10:13:16;2.10;89.00
18654;DHT22;9456;47.824;16.228;2022-12-29T10:15:49;2.30;87.70
18654;DHT22;9456;47.824;16.228;2022-12-29T10:18:24;2.30;87.10
18654;DHT22;9456;47.824;16.228;2022-12-29T10:20:53;2.50;86.40
18654;DHT22;9456;47.824;16.228;2022-12-29T10:23:28;2.60;84.60
18654;DHT22;9456;47.824;16.228;2022-12-29T10:25:57;2.80;83.20
18654;DHT22;9456;47.824;16.228;2022-12-29T10:28:34;2.70;81.40
18654;DHT22;9456;47.824;16.228;2022-12-29T10:30:55;2.60;81.90
18654;DHT22;9456;47.824;16.228;2022-12-29T10:33:25;2.50;82.30
18654;DHT22;9456;47.824;16.228;2022-12-29T10:35:52;2.40;82.80
18654;DHT22;9456;47.824;16.228;2022-12-29T10:38:24;2.10;83.20
18654;DHT22;9456;47.824;16.228;2022-12-29T10:40:54;1.70;85.30
18654;DHT22;9456;47.824;16.228;2022-12-29T10:43:26;1.50;86.80
18654;DHT22;9456;47.824;16.228;2022-12-29T10:45:55;1.40;87.40
18654;DHT22;9456;47.824;16.228;2022-12-29T10:48:24;1.50;88.70
18654;DHT22;9456;47.824;16.228;2022-12-29T10:50:53;1.70;88.80
18654;DHT22;9456;47.824;16.228;2022-12-29T10:53:22;1.70;87.10
18654;DHT22;9456;47.824;16.228;2022-12-29T10:55:50;1.60;87.00
18654;DHT22;9456;47.824;16.228;2022-12-29T10:58:19;1.50;88.80
18654;DHT22;9456;47.824;16.228;2022-12-29T11:00:50;1.50;89.80
18654;DHT22;9456;47.824;16.228;2022-12-29T11:03:37;1.30;90.00
18654;DHT22;9456;47.824;16.228;2022-12-29T11:06:12;1.20;90.40
18654;DHT22;9456;47.824;16.228;2022-12-29T11:08:44;1.30;90.80
18654;DHT22;9456;47.824;16.228;2022-12-29T11:11:10;1.30;90.90
18654;DHT22;9456;47.824;16.228;2022-12-29T11:13:48;1.40;90.80
18654;DHT22;9456;47.824;16.228;2022-12-29T11:16:21;1.30;91.20
18654;DHT22;9456;47.824;16.228;2022-12-29T11:18:49;1.30;91.40
18654;DHT22;9456;47.824;16.228;2022-12-29T11:21:30;1.20;91.30
18654;DHT22;9456;47.824;16.228;2022-12-29T11:23:58;1.10;91.20
18654;DHT22;9456;47.824;16.228;2022-12-29T11:26:27;1.20;91.60
18654;DHT22;9456;47.824;16.228;2022-12-29T11:31:58;1.10;91.60
18654;DHT22;9456;47.824;16.228;2022-12-29T11:34:31;0.90;91.70
18654;DHT22;9456;47.824;16.228;2022-12-29T11:36:59;0.90;92.20
18654;DHT22;9456;47.824;16.228;2022-12-29T11:39:32;1.00;92.30
18654;DHT22;9456;47.824;16.228;2022-12-29T11:42:00;1.20;92.70
18654;DHT22;9456;47.824;16.228;2022-12-29T11:44:32;1.40;92.40
18654;DHT22;9456;47.824;16.228;2022-12-29T11:47:00;1.50;91.90
18654;DHT22;9456;47.824;16.228;2022-12-29T11:49:29;1.50;91.60
18654;DHT22;9456;47.824;16.228;2022-12-29T11:51:58;1.50;91.50
18654;DHT22;9456;47.824;16.228;2022-12-29T11:54:28;1.50;91.50
18654;DHT22;9456;47.824;16.228;2022-12-29T11:56:56;1.60;91.70
18654;DHT22;9456;47.824;16.228;2022-12-29T11:59:44;1.60;91.30
18654;DHT22;9456;47.824;16.228;2022-12-29T12:02:38;1.50;91.40
18654;DHT22;9456;47.824;16.228;2022-12-29T12:05:10;1.60;92.20
18654;DHT22;9456;47.824;16.228;2022-12-29T12:07:46;1.60;91.90
18654;DHT22;9456;47.824;16.228;2022-12-29T12:10:20;1.50;91.80
18654;DHT22;9456;47.824;16.228;2022-12-29T12:12:51;1.50;92.20
18654;DHT22;9456;47.824;16.228;2022-12-29T12:15:21;1.40;92.20
18654;DHT22;9456;47.824;16.228;2022-12-29T12:17:50;1.30;92.40
18654;DHT22;9456;47.824;16.228;2022-12-29T12:20:21;1.20;92.60
18654;DHT22;9456;47.824;16.228;2022-12-29T12:22:53;1.20;92.90
18654;DHT22;9456;47.824;16.228;2022-12-29T12:25:23;1.20;93.10
18654;DHT22;9456;47.824;16.228;2022-12-29T12:27:52;1.40;94.00
18654;DHT22;9456;47.824;16.228;2022-12-29T12:30:21;1.30;93.20
18654;DHT22;9456;47.824;16.228;2022-12-29T12:32:52;1.30;93.10
18654;DHT22;9456;47.824;16.228;2022-12-29T12:35:23;1.20;93.30
18654;DHT22;9456;47.824;16.228;2022-12-29T12:37:59;1.10;93.50
18654;DHT22;9456;47.824;16.228;2022-12-29T12:40:42;1.10;93.50
18654;DHT22;9456;47.824;16.228;2022-12-29T12:46:14;0.90;94.30
18654;DHT22;9456;47.824;16.228;2022-12-29T12:48:53;0.90;94.40
18654;DHT22;9456;47.824;16.228;2022-12-29T12:51:22;0.80;94.50
18654;DHT22;9456;47.824;16.228;2022-12-29T12:53:56;0.80;94.50
18654;DHT22;9456;47.824;16.228;2022-12-29T12:56:53;0.80;94.60
18654;DHT22;9456;47.824;16.228;2022-12-29T12:59:29;0.70;94.50
18654;DHT22;9456;47.824;16.228;2022-12-29T13:01:58;0.70;94.60
18654;DHT22;9456;47.824;16.228;2022-12-29T13:04:51;0.70;94.80
18654;DHT22;9456;47.824;16.228;2022-12-29T13:07:22;0.60;94.80
18654;DHT22;9456;47.824;16.228;2022-12-29T13:10:02;0.70;95.10
18654;DHT22;9456;47.824;16.228;2022-12-29T13:12:34;0.70;95.00
18654;DHT22;9456;47.824;16.228;2022-12-29T13:15:07;0.70;95.10
18654;DHT22;9456;47.824;16.228;2022-12-29T13:17:38;0.70;95.10
18654;DHT22;9456;47.824;16.228;2022-12-29T13:20:10;0.70;95.10
18654;DHT22;9456;47.824;16.228;2022-12-29T13:22:39;0.80;95.20
18654;DHT22;9456;47.824;16.228;2022-12-29T13:25:20;0.90;95.00
18654;DHT22;9456;47.824;16.228;2022-12-29T13:27:50;0.90;95.10
18654;DHT22;9456;47.824;16.228;2022-12-29T13:30:19;0.90;94.80
18654;DHT22;9456;47.824;16.228;2022-12-29T13:32:53;0.90;94.70
18654;DHT22;9456;47.824;16.228;2022-12-29T13:35:25;0.90;95.00
18654;DHT22;9456;47.824;16.228;2022-12-29T13:37:54;0.80;94.80
18654;DHT22;9456;47.824;16.228;2022-12-29T13:40:24;0.90;95.40
18654;DHT22;9456;47.824;16.228;2022-12-29T13:42:52;0.80;95.00
18654;DHT22;9456;47.824;16.228;2022-12-29T13:45:22;0.90;95.10
18654;DHT22;9456;47.824;16.228;2022-12-29T13:47:52;0.90;95.00
18654;DHT22;9456;47.824;16.228;2022-12-29T13:50:20;0.90;95.00
18654;DHT22;9456;47.824;16.228;2022-12-29T13:52:52;0.90;95.10
18654;DHT22;9456;47.824;16.228;2022-12-29T13:55:22;0.90;95.20
18654;DHT22;9456;47.824;16.228;2022-12-29T13:57:52;0.90;95.20
18654;DHT22;9456;47.824;16.228;2022-12-29T14:00:21;1.00;95.40
18654;DHT22;9456;47.824;16.228;2022-12-29T14:03:02;1.00;95.10
18654;DHT22;9456;47.824;16.228;2022-12-29T14:05:31;1.00;95.10
18654;DHT22;9456;47.824;16.228;2022-12-29T14:08:00;0.90;94.90
18654;DHT22;9456;47.824;16.228;2022-12-29T14:10:32;0.80;94.70
18654;DHT22;9456;47.824;16.228;2022-12-29T14:13:05;0.70;94.80
18654;DHT22;9456;47.824;16.228;2022-12-29T14:15:34;0.60;94.90
18654;DHT22;9456;47.824;16.228;2022-12-29T14:18:13;0.60;95.00
18654;DHT22;9456;47.824;16.228;2022-12-29T14:20:48;0.50;95.00
18654;DHT22;9456;47.824;16.228;2022-12-29T14:23:27;0.50;95.10
18654;DHT22;9456;47.824;16.228;2022-12-29T14:25:58;0.50;95.20
18654;DHT22;9456;47.824;16.228;2022-12-29T14:28:27;0.40;95.30
18654;DHT22;9456;47.824;16.228;2022-12-29T14:34:34;0.50;95.40
18654;DHT22;9456;47.824;16.228;2022-12-29T14:37:00;0.40;95.10
18654;DHT22;9456;47.824;16.228;2022-12-29T14:39:35;0.40;95.50
18654;DHT22;9456;47.824;16.228;2022-12-29T14:42:04;0.40;95.40
18654;DHT22;9456;47.824;16.228;2022-12-29T14:44:33;0.40;95.60
18654;DHT22;9456;47.824;16.228;2022-12-29T14:47:04;0.60;96.30
18654;DHT22;9456;47.824;16.228;2022-12-29T14:49:32;0.50;96.00
18654;DHT22;9456;47.824;16.228;2022-12-29T14:52:13;0.50;96.00
18654;DHT22;9456;47.824;16.228;2022-12-29T14:54:48;0.50;96.00
18654;DHT22;9456;47.824;16.228;2022-12-29T14:57:37;0.50;96.00
18654;DHT22;9456;47.824;16.228;2022-12-29T15:00:18;0.50;96.00
18654;DHT22;9456;47.824;16.228;2022-12-29T15:02:47;0.50;96.00
18654;DHT22;9456;47.824;16.228;2022-12-29T15:05:29;0.50;96.00
18654;DHT22;9456;47.824;16.228;2022-12-29T15:07:57;0.40;95.70
18654;DHT22;9456;47.824;16.228;2022-12-29T15:10:27;0.30;95.70
18654;DHT22;9456;47.824;16.228;2022-12-29T15:13:00;0.30;95.80
18654;DHT22;9456;47.824;16.228;2022-12-29T15:15:35;0.30;95.90
18654;DHT22;9456;47.824;16.228;2022-12-29T15:17:59;0.30;96.00
18654;DHT22;9456;47.824;16.228;2022-12-29T15:20:28;0.30;96.10
18654;DHT22;9456;47.824;16.228;2022-12-29T15:22:57;0.20;96.00
18654;DHT22;9456;47.824;16.228;2022-12-29T15:25:26;0.20;96.00
18654;DHT22;9456;47.824;16.228;2022-12-29T15:27:57;0.20;96.00
18654;DHT22;9456;47.824;16.228;2022-12-29T15:30:25;0.20;96.00
18654;DHT22;9456;47.824;16.228;2022-12-29T15:32:54;0.20;96.00
18654;DHT22;9456;47.824;16.228;2022-12-29T15:35:31;0.20;95.90
18654;DHT22;9456;47.824;16.228;2022-12-29T15:37:59;0.10;96.00
18654;DHT22;9456;47.824;16.228;2022-12-29T15:40:29;0.20;96.40
18654;DHT22;9456;47.824;16.228;2022-12-29T15:45:52;0.20;96.20
18654;DHT22;9456;47.824;16.228;2022-12-29T15:48:22;0.20;96.20
18654;DHT22;9456;47.824;16.228;2022-12-29T15:50:50;0.20;96.20
18654;DHT22;9456;47.824;16.228;2022-12-29T15:53:20;0.20;96.10
18654;DHT22;9456;47.824;16.228;2022-12-29T15:55:49;0.20;96.10
18654;DHT22;9456;47.824;16.228;2022-12-29T15:58:22;0.20;96.20
18654;DHT22;9456;47.824;16.228;2022-12-29T16:00:51;0.20;96.10
18654;DHT22;9456;47.824;16.228;2022-12-29T16:03:20;0.10;96.00
18654;DHT22;9456;47.824;16.228;2022-12-29T16:05:53;0.10;96.10
18654;DHT22;9456;47.824;16.228;2022-12-29T16:08:34;0.10;96.20
18654;DHT22;9456;47.824;16.228;2022-12-29T16:11:02;0.00;96.10
18654;DHT22;9456;47.824;16.228;2022-12-29T16:13:32;0.10;96.30
18654;DHT22;9456;47.824;16.228;2022-12-29T16:16:02;0.10;96.30
18654;DHT22;9456;47.824;16.228;2022-12-29T16:18:34;0.10;96.30
18654;DHT22;9456;47.824;16.228;2022-12-29T16:21:03;0.10;96.40
18654;DHT22;9456;47.824;16.228;2022-12-29T16:23:32;0.20;96.50
18654;DHT22;9456;47.824;16.228;2022-12-29T16:26:00;0.20;96.60
18654;DHT22;9456;47.824;16.228;2022-12-29T16:28:35;0.20;96.60
18654;DHT22;9456;47.824;16.228;2022-12-29T16:31:03;0.30;96.70
18654;DHT22;9456;47.824;16.228;2022-12-29T16:33:36;0.30;96.60
18654;DHT22;9456;47.824;16.228;2022-12-29T16:36:22;0.30;96.60